createdAt,value
2017-10-03T00:00:36.413Z,14.00
2017-10-03T00:03:03.887Z,14.00
2017-10-03T00:05:31.376Z,14.00
2017-10-03T00:07:58.853Z,13.90
2017-10-03T00:10:26.368Z,14.00
2017-10-03T00:12:54.615Z,13.90
2017-10-03T00:15:22.090Z,13.90
2017-10-03T00:17:49.571Z,14.00
2017-10-03T00:20:17.807Z,13.90
2017-10-03T00:22:45.304Z,13.90
2017-10-03T00:25:13.554Z,13.90
2017-10-03T00:27:41.791Z,13.90
2017-10-03T00:30:09.280Z,13.80
2017-10-03T00:32:36.755Z,13.80
2017-10-03T00:35:04.258Z,13.80
2017-10-03T00:37:31.732Z,13.80
2017-10-03T00:39:59.211Z,13.70
2017-10-03T00:42:26.696Z,13.70
2017-10-03T00:44:54.940Z,13.70
2017-10-03T00:47:22.432Z,13.60
2017-10-03T00:49:50.718Z,13.70
2017-10-03T00:52:18.975Z,13.70
2017-10-03T00:54:46.463Z,13.70
2017-10-03T00:57:14.704Z,13.70
2017-10-03T00:59:42.210Z,13.70
2017-10-03T01:02:09.740Z,13.70
2017-10-03T01:04:37.981Z,13.70
2017-10-03T01:07:05.571Z,13.70
2017-10-03T01:09:33.815Z,13.70
2017-10-03T01:12:01.323Z,13.70
2017-10-03T01:14:29.564Z,13.70
2017-10-03T01:16:57.036Z,13.70
2017-10-03T01:19:24.528Z,13.70
2017-10-03T01:21:52.008Z,13.70
2017-10-03T01:24:19.512Z,13.70
2017-10-03T01:26:46.987Z,13.70
2017-10-03T01:29:15.223Z,13.60
2017-10-03T01:31:42.716Z,13.60
2017-10-03T01:34:10.960Z,13.60
2017-10-03T01:36:38.455Z,13.50
2017-10-03T01:39:06.690Z,13.50
2017-10-03T01:41:34.160Z,13.50
2017-10-03T01:44:01.651Z,13.50
2017-10-03T01:46:29.901Z,13.50
2017-10-03T01:48:57.471Z,13.40
2017-10-03T01:51:25.715Z,13.40
2017-10-03T01:53:53.188Z,13.40
2017-10-03T01:56:21.455Z,13.40
2017-10-03T01:58:48.945Z,13.30
2017-10-03T02:01:17.215Z,13.40
2017-10-03T02:03:44.696Z,13.30
2017-10-03T02:06:12.936Z,13.30
2017-10-03T02:08:40.427Z,13.30
2017-10-03T02:11:08.666Z,13.30
2017-10-03T02:13:36.155Z,13.30
2017-10-03T02:16:04.408Z,13.30
2017-10-03T02:18:31.885Z,13.20
2017-10-03T02:21:00.138Z,13.30
2017-10-03T02:23:27.624Z,13.20
2017-10-03T02:25:55.899Z,13.20
2017-10-03T02:28:24.135Z,13.20
2017-10-03T02:30:51.603Z,13.20
2017-10-03T02:33:19.095Z,13.20
2017-10-03T02:35:47.359Z,13.30
2017-10-03T02:38:15.623Z,13.30
2017-10-03T02:40:43.107Z,13.30
2017-10-03T02:43:11.364Z,13.20
2017-10-03T02:45:38.857Z,13.20
2017-10-03T02:48:06.335Z,13.30
2017-10-03T02:50:33.830Z,13.20
2017-10-03T02:53:01.303Z,13.20
2017-10-03T02:55:29.585Z,13.20
2017-10-03T02:57:57.840Z,13.20
2017-10-03T03:00:25.424Z,13.20
2017-10-03T03:02:53.691Z,13.20
2017-10-03T03:05:21.932Z,13.20
2017-10-03T03:07:49.414Z,13.20
2017-10-03T03:10:17.671Z,13.20
2017-10-03T03:12:45.145Z,13.20
2017-10-03T03:15:12.631Z,13.20
2017-10-03T03:17:40.878Z,13.10
2017-10-03T03:20:08.355Z,13.10
2017-10-03T03:22:36.609Z,13.00
2017-10-03T03:25:04.084Z,13.00
2017-10-03T03:27:31.575Z,13.00
2017-10-03T03:29:59.048Z,13.00
2017-10-03T03:32:26.569Z,13.00
2017-10-03T03:34:54.828Z,13.10
2017-10-03T03:37:22.295Z,13.00
2017-10-03T03:39:49.797Z,13.00
2017-10-03T03:42:17.275Z,13.10
2017-10-03T03:44:44.748Z,13.10
2017-10-03T03:47:12.238Z,13.00
2017-10-03T03:49:40.515Z,13.00
2017-10-03T03:52:08.779Z,13.00
2017-10-03T03:54:36.267Z,13.00
2017-10-03T03:57:03.739Z,13.00
2017-10-03T08:13:25.981Z,13.70
2017-10-03T08:15:53.463Z,13.60
2017-10-03T08:18:21.803Z,13.70
2017-10-03T08:20:49.291Z,13.70
2017-10-03T08:23:17.532Z,13.80
2017-10-03T08:25:45.025Z,13.80
2017-10-03T08:28:13.271Z,14.20
2017-10-03T08:30:40.743Z,14.20
2017-10-03T08:33:08.243Z,14.20
2017-10-03T08:35:35.716Z,14.30
2017-10-03T08:38:03.220Z,14.40
2017-10-03T08:40:30.691Z,14.50
2017-10-03T08:42:58.931Z,14.70
2017-10-03T08:45:26.419Z,14.70
2017-10-03T08:47:54.659Z,15.00
2017-10-03T08:50:22.176Z,14.90
2017-10-03T08:52:49.686Z,15.00
2017-10-03T08:55:17.173Z,15.20
2017-10-03T08:57:45.446Z,15.30
2017-10-03T09:00:12.920Z,15.30
2017-10-03T09:02:40.423Z,15.40
2017-10-03T09:05:07.962Z,15.40
2017-10-03T09:07:35.447Z,15.30
2017-10-03T09:10:02.947Z,15.50
2017-10-03T09:12:31.187Z,15.60
2017-10-03T09:14:58.687Z,15.60
2017-10-03T09:17:26.933Z,15.70
2017-10-03T09:19:54.415Z,15.70
2017-10-03T09:22:22.672Z,15.70
2017-10-03T09:24:50.145Z,15.60
2017-10-03T09:27:18.411Z,15.90
2017-10-03T09:29:45.885Z,15.90
2017-10-03T09:32:14.139Z,16.20
2017-10-03T09:34:41.624Z,16.20
2017-10-03T09:37:09.899Z,16.10
2017-10-03T09:39:38.168Z,16.00
2017-10-03T09:42:06.443Z,16.00
2017-10-03T09:44:34.698Z,16.00
2017-10-03T09:47:02.191Z,15.90
2017-10-03T09:49:30.432Z,16.00
2017-10-03T09:51:57.931Z,16.00
2017-10-03T09:54:25.420Z,15.80
2017-10-03T09:56:52.887Z,15.80
2017-10-03T09:59:20.391Z,15.70
2017-10-03T10:01:48.652Z,15.60
2017-10-03T10:04:16.944Z,15.50
2017-10-03T10:06:45.358Z,15.40
2017-10-03T10:09:12.894Z,15.40
2017-10-03T10:11:41.155Z,15.70
2017-10-03T10:14:09.391Z,16.00
2017-10-03T10:16:36.892Z,16.00
2017-10-03T10:19:05.208Z,16.40
2017-10-03T10:21:32.715Z,16.40
2017-10-03T10:24:00.967Z,16.70
2017-10-03T10:26:28.448Z,16.70
2017-10-03T10:28:55.953Z,16.80
2017-10-03T10:31:23.443Z,17.10
2017-10-03T10:33:50.917Z,17.10
2017-10-03T10:36:18.431Z,17.10
2017-10-03T10:38:45.928Z,17.30
2017-10-03T10:41:13.424Z,17.10
2017-10-03T10:43:41.667Z,17.10
2017-10-03T10:46:09.140Z,17.10
2017-10-03T10:48:36.627Z,17.20
2017-10-03T10:51:04.109Z,17.00
2017-10-03T10:53:31.617Z,16.90
2017-10-03T10:55:59.091Z,16.70
2017-10-03T10:58:27.535Z,16.60
2017-10-03T11:00:55.027Z,16.60
2017-10-03T11:03:23.268Z,16.90
2017-10-03T11:05:50.779Z,16.80
2017-10-03T11:08:18.255Z,17.00
2017-10-03T11:10:45.783Z,17.10
2017-10-03T11:13:14.055Z,17.50
2017-10-03T11:15:42.299Z,17.40
2017-10-03T11:18:09.788Z,17.40
2017-10-03T11:20:38.030Z,17.00
2017-10-03T11:23:17.407Z,17.00
2017-10-03T11:25:45.651Z,17.10
2017-10-03T11:28:13.129Z,17.10
2017-10-03T11:30:41.382Z,17.50
2017-10-03T11:33:08.855Z,17.50
2017-10-03T11:35:36.356Z,17.40
2017-10-03T11:38:03.850Z,17.30
2017-10-03T11:40:31.329Z,17.30
2017-10-03T11:42:59.598Z,17.30
2017-10-03T11:45:27.082Z,17.20
2017-10-03T11:47:55.347Z,17.60
2017-10-03T11:50:22.824Z,17.50
2017-10-03T11:52:51.063Z,17.70
2017-10-03T11:55:18.557Z,17.70
2017-10-03T11:57:46.799Z,18.00
2017-10-03T12:00:14.353Z,17.90
2017-10-03T12:02:41.827Z,18.20
2017-10-03T12:05:09.317Z,18.00
2017-10-03T12:07:36.808Z,17.80
2017-10-03T12:10:04.294Z,17.70
2017-10-03T12:12:33.300Z,17.80
2017-10-03T12:15:00.771Z,17.90
2017-10-03T12:17:29.014Z,18.20
2017-10-03T12:19:56.499Z,18.20
2017-10-03T12:22:24.740Z,18.10
2017-10-03T12:24:52.235Z,18.10
2017-10-03T12:27:20.483Z,18.50
2017-10-03T12:29:47.956Z,18.50
2017-10-03T12:32:15.565Z,18.30
2017-10-03T12:34:43.041Z,18.40
2017-10-03T12:37:10.539Z,18.40
2017-10-03T12:39:38.016Z,18.10
2017-10-03T12:42:06.255Z,18.00
2017-10-03T12:44:33.768Z,18.00
2017-10-03T12:47:01.251Z,18.20
2017-10-03T12:49:28.747Z,18.50
2017-10-03T12:51:56.229Z,18.50
2017-10-03T12:54:24.472Z,18.80
2017-10-03T12:56:51.959Z,18.80
2017-10-03T12:59:20.218Z,19.30
2017-10-03T13:01:47.718Z,19.30
2017-10-03T13:04:15.203Z,19.50
2017-10-03T13:06:42.679Z,19.30
2017-10-03T13:09:10.194Z,18.90
2017-10-03T13:11:37.667Z,18.70
2017-10-03T13:14:05.269Z,18.10
2017-10-03T13:16:33.592Z,17.70
2017-10-03T13:19:01.073Z,17.70
2017-10-03T13:21:28.567Z,17.70
2017-10-03T13:23:56.047Z,17.70
2017-10-03T13:26:24.304Z,18.20
2017-10-03T13:28:52.543Z,18.40
2017-10-03T13:31:20.060Z,18.40
2017-10-03T13:33:47.551Z,18.50
2017-10-03T13:36:15.015Z,18.40
2017-10-03T13:38:42.507Z,18.40
2017-10-03T13:41:10.096Z,18.10
2017-10-03T13:43:37.579Z,17.90
2017-10-03T13:46:05.068Z,17.70
2017-10-03T13:48:32.547Z,17.50
2017-10-03T13:51:00.057Z,17.60
2017-10-03T13:53:27.532Z,17.60
2017-10-03T13:55:55.017Z,17.60
2017-10-03T13:58:22.509Z,17.40
2017-10-03T14:00:49.988Z,17.20
2017-10-03T14:03:17.475Z,17.10
2017-10-03T14:05:44.998Z,17.00
2017-10-03T14:08:12.479Z,16.90
2017-10-03T14:10:39.982Z,16.80
2017-10-03T14:13:08.223Z,16.60
2017-10-03T14:15:35.729Z,16.60
2017-10-03T14:18:03.997Z,16.60
2017-10-03T14:20:32.228Z,16.50
2017-10-03T14:22:59.736Z,16.50
2017-10-03T14:25:28.026Z,16.70
2017-10-03T14:27:55.562Z,16.70
2017-10-03T14:30:23.811Z,16.90
2017-10-03T14:32:51.286Z,16.90
2017-10-03T14:35:18.775Z,17.00
2017-10-03T14:37:46.242Z,17.00
2017-10-03T14:40:13.793Z,17.10
2017-10-03T14:42:41.273Z,17.10
2017-10-03T14:45:08.747Z,17.20
2017-10-03T14:47:36.244Z,17.10
2017-10-03T14:50:04.492Z,16.90
2017-10-03T14:52:31.983Z,16.90
2017-10-03T14:55:00.228Z,16.80
2017-10-03T14:57:27.713Z,16.80
2017-10-03T14:59:55.987Z,16.70
2017-10-03T15:02:24.263Z,16.70
2017-10-03T15:04:51.762Z,16.70
2017-10-03T15:07:19.239Z,16.70
2017-10-03T15:09:46.730Z,16.60
2017-10-03T15:12:15.041Z,16.40
2017-10-03T15:14:42.519Z,16.40
2017-10-03T15:17:10.020Z,16.40
2017-10-03T15:19:37.495Z,16.40
2017-10-03T15:22:05.734Z,16.20
2017-10-03T15:24:33.221Z,16.20
2017-10-03T15:27:02.212Z,16.10
2017-10-03T15:29:30.471Z,16.10
2017-10-03T15:31:57.955Z,16.00
2017-10-03T15:34:25.449Z,16.00
2017-10-03T15:36:52.936Z,16.10
2017-10-03T15:39:20.406Z,16.10
2017-10-03T15:41:47.906Z,16.10
2017-10-03T15:44:16.163Z,16.10
2017-10-03T15:46:43.634Z,16.10
2017-10-03T15:49:11.884Z,16.00
2017-10-03T15:51:40.218Z,16.00
2017-10-03T15:54:07.732Z,16.00
2017-10-03T15:56:35.203Z,16.00
2017-10-03T15:59:03.466Z,16.10
2017-10-03T16:01:31.728Z,16.10
2017-10-03T16:03:59.208Z,16.10
2017-10-03T16:06:27.473Z,16.10
2017-10-03T16:08:56.467Z,16.00
2017-10-03T16:11:23.935Z,16.00
2017-10-03T16:13:52.201Z,16.00
2017-10-03T16:16:21.247Z,16.00
2017-10-03T16:18:48.751Z,16.00
2017-10-03T16:21:16.988Z,15.90
2017-10-03T16:23:44.460Z,15.90
2017-10-03T16:26:11.952Z,15.80
2017-10-03T16:28:40.976Z,15.70
2017-10-03T16:31:09.429Z,15.70
2017-10-03T16:33:38.427Z,15.80
2017-10-03T16:36:06.673Z,15.70
2017-10-03T16:38:34.163Z,15.70
2017-10-03T16:41:02.408Z,15.60
2017-10-03T16:43:29.903Z,15.60
2017-10-03T16:45:58.135Z,15.50
2017-10-03T16:48:25.612Z,15.50
2017-10-03T16:50:53.105Z,15.40
2017-10-03T16:53:20.598Z,15.40
2017-10-03T16:55:48.112Z,15.30
2017-10-03T16:58:16.376Z,15.30
2017-10-03T17:00:44.645Z,15.30
2017-10-03T17:03:12.157Z,15.20
2017-10-03T17:05:39.642Z,15.20
2017-10-03T17:08:07.135Z,15.20
2017-10-03T17:10:35.378Z,15.20
2017-10-03T17:13:02.872Z,15.10
2017-10-03T17:15:31.128Z,15.20
2017-10-03T17:17:58.604Z,15.20
2017-10-03T17:20:26.863Z,15.30
2017-10-03T17:22:54.331Z,15.30
2017-10-03T17:25:21.812Z,15.30
2017-10-03T17:27:50.071Z,15.30
2017-10-03T17:30:18.312Z,15.30
2017-10-03T17:32:45.811Z,15.30
2017-10-03T17:35:14.056Z,15.10
2017-10-03T17:37:41.528Z,15.10
2017-10-03T17:40:09.025Z,15.10
2017-10-03T17:42:36.500Z,15.00
2017-10-03T17:45:03.997Z,15.00
2017-10-03T17:47:31.472Z,14.90
2017-10-03T17:49:59.724Z,14.80
2017-10-03T17:52:27.215Z,14.80
2017-10-03T17:54:55.452Z,14.80
2017-10-03T17:57:22.948Z,14.80
2017-10-03T17:59:51.208Z,14.70
2017-10-03T18:02:19.455Z,14.70
2017-10-03T18:04:46.952Z,14.70
2017-10-03T18:07:15.214Z,14.60
2017-10-03T18:09:42.711Z,14.60
2017-10-03T18:12:10.180Z,14.60
2017-10-03T18:14:37.704Z,14.60
2017-10-03T18:17:05.959Z,14.50
2017-10-03T18:19:33.435Z,14.50
2017-10-03T18:22:00.937Z,14.50
2017-10-03T18:24:28.411Z,14.50
2017-10-03T18:26:55.883Z,14.40
2017-10-03T18:29:23.393Z,14.40
2017-10-03T18:31:51.631Z,14.30
2017-10-03T18:34:19.182Z,14.30
2017-10-03T18:36:46.692Z,14.30
2017-10-03T18:39:14.163Z,14.30
2017-10-03T18:41:41.651Z,14.30
2017-10-03T18:44:09.128Z,14.20
2017-10-03T18:46:36.622Z,14.20
2017-10-03T18:49:04.099Z,14.20
2017-10-03T18:51:31.577Z,14.10
2017-10-03T18:53:59.055Z,14.10
2017-10-03T18:56:26.542Z,14.10
2017-10-03T18:58:54.839Z,14.00
2017-10-03T19:01:22.312Z,14.00
2017-10-03T19:03:49.829Z,14.00
2017-10-03T19:06:18.146Z,13.90
2017-10-03T19:08:45.664Z,13.90
2017-10-03T19:11:13.930Z,13.90
2017-10-03T19:13:41.408Z,13.80
2017-10-03T19:16:09.651Z,13.80
2017-10-03T19:18:37.136Z,13.80
2017-10-03T19:21:05.389Z,13.80
2017-10-03T19:23:33.716Z,13.70
2017-10-03T19:26:01.653Z,13.70
2017-10-03T19:28:29.367Z,13.70
2017-10-03T19:30:56.855Z,13.70
2017-10-03T19:33:24.333Z,13.70
2017-10-03T19:35:51.820Z,13.70
2017-10-03T19:38:19.360Z,13.70
2017-10-03T19:40:47.604Z,13.60
2017-10-03T19:43:15.199Z,13.60
2017-10-03T19:45:43.448Z,13.50
2017-10-03T19:48:11.004Z,13.50
2017-10-03T19:50:39.345Z,13.50
2017-10-03T19:53:06.822Z,13.50
2017-10-03T19:55:34.308Z,13.50
2017-10-03T19:58:01.783Z,13.50
2017-10-03T20:00:30.166Z,13.40
2017-10-03T20:02:58.413Z,13.40
